Time;durP1;ratioP1;P1;durP2;ratioP2;P2;SDS_P1;SDS_P2;PMS_P1;PMS_P2;Temp;Humidity;BMP_temperature;BMP_pressure;BME280_temperature;BME280_humidity;BME280_pressure;Samples;Min_cycle;Max_cycle;Signal;HPM_P1;HPM_P2
2024/01/08 00:01:58;;;;;;;;;24.33;15.33;;;;;1.54;59.13;101930.78;5030501;28;67306;-69
2024/01/08 00:04:24;;;;;;;;;22.75;16.25;;;;;1.53;58.68;101926.44;5032615;28;49830;-69
2024/01/08 00:06:50;;;;;;;;;23.50;17.75;;;;;1.49;58.58;101935.78;5026309;28;72457;-67
2024/01/08 00:09:16;;;;;;;;;21.25;15.75;;;;;1.41;58.64;101924.34;5013145;28;48323;-71
2024/01/08 00:11:41;;;;;;;;;26.75;19.50;;;;;1.35;58.63;101939.66;5033387;28;65737;-69
2024/01/08 00:14:06;;;;;;;;;27.75;23.75;;;;;1.32;58.64;101943.00;5030339;28;45459;-68
2024/01/08 00:16:32;;;;;;;;;20.75;19.75;;;;;1.27;58.39;101925.63;5024311;28;45408;-68
2024/01/08 00:18:57;;;;;;;;;16.25;12.00;;;;;1.22;58.32;101935.84;5035538;28;45869;-68
2024/01/08 00:21:22;;;;;;;;;21.50;15.50;;;;;1.15;58.66;101931.28;5024114;28;60273;-68
2024/01/08 00:23:48;;;;;;;;;27.25;16.50;;;;;1.12;58.82;101929.50;5030987;28;45261;-67
2024/01/08 00:26:13;;;;;;;;;19.00;16.00;;;;;1.10;58.76;101931.16;5012489;28;71412;-68
2024/01/08 00:28:38;;;;;;;;;29.67;20.67;;;;;1.08;59.26;101935.41;5013812;28;73358;-68
2024/01/08 00:31:04;;;;;;;;;20.50;13.00;;;;;1.08;59.14;101927.66;5029814;28;49739;-69
2024/01/08 00:33:29;;;;;;;;;15.75;11.00;;;;;1.07;58.78;101938.78;5011454;28;56400;-68
2024/01/08 00:35:54;;;;;;;;;27.00;19.33;;;;;1.04;58.83;101928.38;5029117;28;66070;-68
2024/01/08 00:38:20;;;;;;;;;22.50;18.00;;;;;1.05;58.64;101931.84;5020857;28;45457;-68
2024/01/08 00:40:45;;;;;;;;;22.00;20.25;;;;;1.07;58.52;101931.06;5018915;28;69557;-68
2024/01/08 00:43:10;;;;;;;;;23.50;18.75;;;;;1.05;58.33;101929.28;5026954;28;68850;-70
2024/01/08 00:45:36;;;;;;;;;29.50;15.75;;;;;1.06;58.26;101926.75;5029807;28;45329;-69
2024/01/08 00:48:01;;;;;;;;;20.50;19.00;;;;;1.08;58.08;101925.09;5014351;28;46247;-69
2024/01/08 00:50:27;;;;;;;;;21.50;19.00;;;;;1.07;58.43;101933.63;5030979;28;45642;-69
2024/01/08 00:52:52;;;;;;;;;29.25;19.50;;;;;1.08;58.27;101926.78;5031698;28;45393;-69
2024/01/08 00:55:18;;;;;;;;;28.50;15.75;;;;;1.09;58.24;101924.25;5028982;28;51105;-69
2024/01/08 00:57:43;;;;;;;;;27.50;14.50;;;;;1.11;57.61;101927.75;5035335;28;45617;-68
2024/01/08 01:00:09;;;;;;;;;26.67;22.33;;;;;1.09;57.95;101926.81;5023613;28;67606;-67
2024/01/08 01:02:35;;;;;;;;;35.25;18.75;;;;;1.09;58.14;101923.38;5036254;28;45399;-68
2024/01/08 01:05:00;;;;;;;;;28.75;21.00;;;;;1.16;58.43;101930.47;5026073;28;45400;-67
2024/01/08 01:07:29;;;;;;;;;26.25;20.25;;;;;1.18;58.27;101917.63;5040041;28;55295;-68
2024/01/08 01:09:55;;;;;;;;;19.50;14.25;;;;;1.20;58.20;101918.53;5038917;28;45836;-68
2024/01/08 01:12:20;;;;;;;;;22.50;18.50;;;;;1.25;58.02;101919.56;5024622;28;45499;-68
2024/01/08 01:14:45;;;;;;;;;26.25;17.50;;;;;1.26;57.78;101929.06;5015047;28;45562;-68
2024/01/08 01:17:11;;;;;;;;;22.00;16.67;;;;;1.18;57.72;101926.22;5021120;28;76803;-67
2024/01/08 01:19:36;;;;;;;;;24.75;16.50;;;;;1.14;57.40;101925.25;5043194;28;45551;-67
2024/01/08 01:22:02;;;;;;;;;21.75;15.75;;;;;1.12;57.58;101936.38;5038610;28;64006;-68
2024/01/08 01:24:27;;;;;;;;;22.75;19.50;;;;;1.10;57.47;101925.13;5027729;28;57081;-68
2024/01/08 01:26:52;;;;;;;;;15.50;12.00;;;;;1.05;57.58;101926.69;5037281;28;67460;-68
2024/01/08 01:29:17;;;;;;;;;18.00;12.00;;;;;1.03;56.91;101921.50;5038148;28;73390;-68
2024/01/08 01:31:43;;;;;;;;;23.50;16.25;;;;;1.01;56.99;101932.56;5040084;28;45508;-68
2024/01/08 01:34:12;;;;;;;;;23.50;11.50;;;;;0.98;57.08;101925.63;5037774;28;70143;-68
2024/01/08 01:36:37;;;;;;;;;25.25;16.00;;;;;0.95;56.45;101934.13;5038073;28;46321;-68
2024/01/08 01:39:06;;;;;;;;;25.00;16.25;;;;;0.88;56.72;101937.31;5017839;28;45481;-68
2024/01/08 01:41:32;;;;;;;;;21.25;18.50;;;;;0.84;56.67;101947.50;5030788;28;45455;-68
2024/01/08 01:43:59;;;;;;;;;22.00;18.00;;;;;0.82;57.10;101934.56;5013818;28;45568;-69
2024/01/08 01:46:32;;;;;;;;;19.25;15.25;;;;;0.81;57.28;101937.94;5007834;28;58770;-69
2024/01/08 01:48:58;;;;;;;;;26.25;18.50;;;;;0.78;57.34;101939.56;5032965;28;45444;-68
2024/01/08 01:51:23;;;;;;;;;21.75;18.00;;;;;0.78;57.67;101937.88;5019432;28;53537;-68
2024/01/08 01:53:49;;;;;;;;;19.50;14.00;;;;;0.79;57.23;101943.91;5022073;28;66283;-67
2024/01/08 01:56:14;;;;;;;;;18.50;14.50;;;;;0.75;57.43;101937.78;5023472;28;47345;-68
2024/01/08 01:58:40;;;;;;;;;21.25;15.25;;;;;0.78;57.63;101942.13;5041057;28;45427;-69
2024/01/08 02:01:06;;;;;;;;;15.75;13.25;;;;;0.81;57.18;101944.81;5013921;28;45667;-69
2024/01/08 02:03:31;;;;;;;;;26.50;22.25;;;;;0.79;57.41;101939.59;5037508;28;45377;-69
2024/01/08 02:05:57;;;;;;;;;17.75;10.50;;;;;0.80;57.31;101953.34;5022013;28;75528;-69
2024/01/08 02:08:23;;;;;;;;;17.50;12.00;;;;;0.79;57.48;101939.59;5033665;28;62046;-68
2024/01/08 02:10:48;;;;;;;;;14.50;11.75;;;;;0.80;57.27;101941.38;5030048;28;68818;-68
2024/01/08 02:13:14;;;;;;;;;18.75;13.25;;;;;0.82;57.36;101944.00;5034365;28;45369;-68
2024/01/08 02:15:39;;;;;;;;;20.33;14.33;;;;;0.82;57.37;101959.47;5016159;28;71511;-68
2024/01/08 02:18:04;;;;;;;;;20.00;12.67;;;;;0.82;57.53;101957.75;5012967;28;73184;-68
2024/01/08 02:20:30;;;;;;;;;18.75;12.25;;;;;0.85;57.47;101957.88;5028173;28;45518;-68
2024/01/08 02:22:58;;;;;;;;;18.00;11.25;;;;;0.87;57.58;101951.06;5031171;28;57251;-68
2024/01/08 02:25:23;;;;;;;;;18.00;12.00;;;;;0.90;57.87;101956.31;5029697;28;46089;-68
2024/01/08 02:27:49;;;;;;;;;19.00;14.75;;;;;0.93;57.74;101953.81;5019569;28;45355;-68
2024/01/08 02:30:14;;;;;;;;;15.33;11.00;;;;;0.97;57.62;101948.75;5035669;28;69448;-68
2024/01/08 02:32:39;;;;;;;;;11.75;8.50;;;;;0.99;57.39;101949.69;5006028;28;51046;-68
2024/01/08 02:35:05;;;;;;;;;13.50;10.50;;;;;1.01;57.42;101956.66;5024308;28;66701;-68
2024/01/08 02:37:30;;;;;;;;;9.75;8.00;;;;;1.01;57.04;101945.44;5031973;28;45432;-68
2024/01/08 02:39:56;;;;;;;;;12.00;11.00;;;;;1.04;57.51;101950.72;5027833;28;53135;-67
2024/01/08 02:42:21;;;;;;;;;10.00;8.00;;;;;1.07;57.14;101954.25;5010170;28;72874;-67
2024/01/08 02:44:46;;;;;;;;;9.50;8.25;;;;;1.10;57.24;101945.75;5019732;28;66543;-67
2024/01/08 02:47:12;;;;;;;;;12.50;10.50;;;;;1.15;56.93;101962.22;5014867;28;45472;-68
2024/01/08 02:49:37;;;;;;;;;10.50;7.00;;;;;1.12;56.41;101957.00;5025969;28;67326;-68
2024/01/08 02:52:03;;;;;;;;;9.00;8.00;;;;;1.08;56.54;101958.59;5033629;28;71311;-68
2024/01/08 02:54:28;;;;;;;;;16.25;9.50;;;;;1.04;56.98;101951.56;5033306;28;45377;-68
2024/01/08 02:56:53;;;;;;;;;11.00;9.67;;;;;1.04;56.89;101956.72;5033589;28;72799;-68
2024/01/08 02:59:19;;;;;;;;;13.50;8.75;;;;;1.05;56.58;101952.47;5036356;28;45507;-68
2024/01/08 03:01:44;;;;;;;;;17.00;7.00;;;;;1.06;57.01;101951.63;5034423;28;45411;-68
2024/01/08 03:04:09;;;;;;;;;22.00;14.00;;;;;1.06;56.90;101957.69;5034365;28;69127;-68
2024/01/08 03:06:34;;;;;;;;;8.00;8.00;;;;;1.06;57.43;101955.09;5026256;28;70218;-68
2024/01/08 03:09:00;;;;;;;;;20.00;11.33;;;;;1.06;56.99;101952.53;5024342;28;65146;-68
2024/01/08 03:11:25;;;;;;;;;19.50;12.25;;;;;1.05;56.84;101960.22;5021655;28;70116;-69
2024/01/08 03:13:50;;;;;;;;;11.75;11.00;;;;;1.02;56.73;101958.38;5035657;28;58259;-67
2024/01/08 03:16:18;;;;;;;;;17.00;12.00;;;;;0.99;56.98;101950.56;5022856;28;67931;-68
2024/01/08 03:18:44;;;;;;;;;13.25;11.00;;;;;0.95;56.87;101959.88;5012784;28;45366;-68
2024/01/08 03:21:10;;;;;;;;;18.75;11.25;;;;;0.96;57.18;101965.94;5012628;28;45541;-68
2024/01/08 03:23:35;;;;;;;;;14.00;11.50;;;;;0.93;57.13;101965.84;5003615;28;45493;-68
2024/01/08 03:26:00;;;;;;;;;18.75;17.00;;;;;0.89;56.84;101964.84;5021060;28;45294;-68
2024/01/08 03:28:26;;;;;;;;;18.25;14.75;;;;;0.85;56.89;101962.13;5035059;28;60608;-68
2024/01/08 03:30:51;;;;;;;;;21.33;14.67;;;;;0.82;57.19;101959.47;5028460;28;70713;-68
2024/01/08 03:33:16;;;;;;;;;16.50;13.75;;;;;0.80;57.31;101971.41;5036610;28;67308;-68
2024/01/08 03:35:43;;;;;;;;;19.25;12.25;;;;;0.79;57.71;101967.09;5034987;28;60839;-68
2024/01/08 03:38:08;;;;;;;;;17.25;14.00;;;;;0.80;57.78;101962.00;5020540;28;45416;-68
2024/01/08 03:40:33;;;;;;;;;14.00;12.25;;;;;0.81;57.71;101966.28;5029385;28;45476;-67
2024/01/08 03:42:59;;;;;;;;;18.75;14.50;;;;;0.83;58.00;101964.63;5021731;28;45479;-67
2024/01/08 03:45:24;;;;;;;;;19.67;12.00;;;;;0.88;57.81;101962.22;5025283;28;73174;-68
2024/01/08 03:47:49;;;;;;;;;17.00;11.33;;;;;0.89;57.59;101954.56;5036798;28;68700;-67
2024/01/08 03:50:15;;;;;;;;;16.00;13.25;;;;;0.84;57.65;101958.69;5035604;28;58354;-68
2024/01/08 03:52:41;;;;;;;;;14.25;13.50;;;;;0.83;57.83;101966.34;5027899;28;47598;-68
2024/01/08 03:55:07;;;;;;;;;20.75;16.00;;;;;0.83;57.65;101961.19;5035426;28;62551;-68
2024/01/08 03:57:32;;;;;;;;;15.50;13.25;;;;;0.79;57.71;101967.94;5006985;28;45444;-68
2024/01/08 03:59:58;;;;;;;;;15.00;12.00;;;;;0.74;58.01;101970.41;5030038;28;71864;-67
2024/01/08 04:02:23;;;;;;;;;17.75;13.25;;;;;0.73;57.81;101968.63;5014149;28;64367;-68
2024/01/08 04:04:48;;;;;;;;;23.50;13.75;;;;;0.72;57.75;101966.88;5015744;28;45424;-68
2024/01/08 04:07:14;;;;;;;;;16.25;13.75;;;;;0.72;58.03;101974.59;5021846;28;45428;-68
2024/01/08 04:09:39;;;;;;;;;19.50;14.25;;;;;0.66;57.55;101978.69;5030633;28;54824;-69
2024/01/08 04:12:05;;;;;;;;;24.50;15.00;;;;;0.63;57.77;101969.16;5032494;28;45521;-69
2024/01/08 04:14:31;;;;;;;;;14.75;12.50;;;;;0.69;57.77;101976.19;5030275;28;45617;-70
2024/01/08 04:16:56;;;;;;;;;15.25;13.25;;;;;0.71;57.79;101972.88;5018693;28;45382;-70
2024/01/08 04:19:22;;;;;;;;;15.00;12.00;;;;;0.72;57.55;101976.31;5032659;28;45363;-70
2024/01/08 04:21:47;;;;;;;;;16.25;12.00;;;;;0.75;57.95;101976.41;5001817;28;47171;-70
2024/01/08 04:24:13;;;;;;;;;18.33;13.00;;;;;0.79;57.41;101979.97;5016050;28;71150;-70
2024/01/08 04:26:39;;;;;;;;;17.75;12.25;;;;;0.77;57.63;101990.22;5029920;28;45419;-70
2024/01/08 04:29:04;;;;;;;;;13.25;10.50;;;;;0.78;57.38;101989.41;5010976;28;64986;-70
2024/01/08 04:31:31;;;;;;;;;11.50;10.00;;;;;0.72;57.21;101977.19;5011638;28;63569;-69
2024/01/08 04:33:56;;;;;;;;;19.25;11.25;;;;;0.71;57.45;101983.16;5019862;28;45527;-70
2024/01/08 04:36:21;;;;;;;;;18.25;15.00;;;;;0.70;57.76;101986.56;5025951;28;45541;-70
2024/01/08 04:38:47;;;;;;;;;15.00;11.75;;;;;0.74;57.92;101991.00;5014973;28;67369;-69
2024/01/08 04:41:19;;;;;;;;;14.75;12.50;;;;;0.78;57.09;101988.50;5016049;28;47071;-70
2024/01/08 04:43:45;;;;;;;;;14.00;9.00;;;;;0.72;56.99;101989.19;5022683;28;45936;-69
2024/01/08 04:46:10;;;;;;;;;26.25;18.75;;;;;0.66;56.72;101991.56;5021683;28;45492;-69
2024/01/08 04:48:36;;;;;;;;;21.00;12.00;;;;;0.63;57.02;101994.91;5015013;28;45583;-69
2024/01/08 04:51:01;;;;;;;;;13.75;9.00;;;;;0.60;57.48;101986.19;4995898;28;47414;-70
2024/01/08 04:53:26;;;;;;;;;19.67;17.00;;;;;0.61;57.39;101991.41;5018733;28;73681;-70
2024/01/08 04:55:52;;;;;;;;;15.33;11.33;;;;;0.58;57.30;101991.28;5014131;28;68272;-69
2024/01/08 04:58:17;;;;;;;;;21.00;14.00;;;;;0.58;57.90;101986.13;5021253;28;67992;-70
2024/01/08 05:00:42;;;;;;;;;16.33;14.00;;;;;0.58;57.79;101993.88;5013144;28;72671;-70
2024/01/08 05:03:12;;;;;;;;;18.00;8.00;;;;;0.62;57.01;101989.69;5028987;28;65851;-70
2024/01/08 05:05:37;;;;;;;;;17.25;13.50;;;;;0.59;57.21;101994.78;5033004;28;45459;-69
2024/01/08 05:08:03;;;;;;;;;18.50;14.75;;;;;0.61;57.09;101988.81;5031975;28;46332;-70
2024/01/08 05:10:29;;;;;;;;;19.25;14.00;;;;;0.63;56.91;101989.75;5026776;28;45518;-70
2024/01/08 05:12:54;;;;;;;;;15.00;11.75;;;;;0.69;56.78;101989.06;5030138;28;72174;-69
2024/01/08 05:15:19;;;;;;;;;16.25;14.00;;;;;0.77;56.54;101990.22;5023978;28;45334;-70
2024/01/08 05:17:45;;;;;;;;;27.00;18.00;;;;;0.84;56.87;101994.75;5022192;28;67677;-70
2024/01/08 05:20:10;;;;;;;;;20.25;13.25;;;;;0.86;56.71;101990.53;5027886;28;45333;-70
2024/01/08 05:22:36;;;;;;;;;20.25;16.00;;;;;0.87;56.84;101989.72;5034636;28;45460;-70
2024/01/08 05:25:01;;;;;;;;;22.00;12.75;;;;;0.86;57.28;101994.81;5033890;28;68200;-70
2024/01/08 05:27:26;;;;;;;;;19.00;15.00;;;;;0.83;56.97;101992.97;5029394;28;45655;-70
2024/01/08 05:29:52;;;;;;;;;18.00;14.00;;;;;0.87;57.26;101994.88;5016787;28;55610;-70
2024/01/08 05:32:17;;;;;;;;;15.75;14.25;;;;;0.86;56.61;101995.69;5023483;28;73003;-70
2024/01/08 05:34:43;;;;;;;;;18.25;14.75;;;;;0.84;56.74;101992.19;5025848;28;69332;-70
2024/01/08 05:37:08;;;;;;;;;19.75;16.00;;;;;0.77;56.25;101990.22;5011756;28;45894;-69
2024/01/08 05:39:34;;;;;;;;;25.25;15.00;;;;;0.69;56.71;101997.72;5023640;28;46400;-69
2024/01/08 05:41:59;;;;;;;;;18.50;15.50;;;;;0.69;56.63;102000.28;5018547;28;45240;-69
2024/01/08 05:44:24;;;;;;;;;11.00;10.50;;;;;0.66;56.70;101995.03;5030878;28;68743;-69
2024/01/08 05:46:50;;;;;;;;;13.00;6.33;;;;;0.64;56.48;102000.91;5015005;28;71572;-68
2024/01/08 05:49:15;;;;;;;;;21.33;12.67;;;;;0.63;56.61;102004.34;5038394;28;65541;-69
2024/01/08 05:51:40;;;;;;;;;20.50;11.00;;;;;0.60;55.70;102007.66;5034951;28;45295;-69
2024/01/08 05:54:06;;;;;;;;;18.00;17.75;;;;;0.54;55.73;102004.91;5017086;28;66045;-69
2024/01/08 05:56:31;;;;;;;;;16.50;13.25;;;;;0.49;55.19;102012.44;5012419;28;45432;-69
2024/01/08 05:58:57;;;;;;;;;16.75;13.75;;;;;0.42;55.12;102000.19;5017526;28;45316;-69
2024/01/08 06:01:22;;;;;;;;;17.50;14.00;;;;;0.38;54.78;102004.34;5023268;28;45346;-69
2024/01/08 06:03:48;;;;;;;;;24.25;12.00;;;;;0.32;55.25;102009.31;5006582;28;63895;-69
2024/01/08 06:06:13;;;;;;;;;17.33;11.67;;;;;0.32;55.47;102000.69;5024962;28;72166;-68
2024/01/08 06:08:40;;;;;;;;;22.00;17.25;;;;;0.31;55.15;102002.38;5010957;28;45571;-70
2024/01/08 06:11:06;;;;;;;;;14.00;11.75;;;;;0.36;55.31;102013.72;5016433;28;47340;-71
2024/01/08 06:13:32;;;;;;;;;20.25;12.50;;;;;0.38;55.52;102011.22;5022504;28;45515;-69
2024/01/08 06:15:57;;;;;;;;;15.25;13.75;;;;;0.47;55.41;102020.97;5005891;28;68902;-68
2024/01/08 06:18:22;;;;;;;;;16.75;15.25;;;;;0.50;55.76;102010.78;5016975;28;68654;-67
2024/01/08 06:20:49;;;;;;;;;19.50;13.25;;;;;0.58;55.24;102014.47;5032031;28;45640;-67
2024/01/08 06:23:15;;;;;;;;;22.25;14.50;;;;;0.67;55.64;102013.91;5032814;28;45349;-68
2024/01/08 06:25:40;;;;;;;;;16.00;15.75;;;;;0.74;55.49;102008.16;5035196;28;45390;-67
2024/01/08 06:28:05;;;;;;;;;20.50;15.75;;;;;0.82;55.61;102013.56;5031357;28;70224;-67
2024/01/08 06:30:31;;;;;;;;;26.25;15.50;;;;;0.86;55.65;102013.72;5027545;28;66929;-67
2024/01/08 06:32:57;;;;;;;;;20.25;12.00;;;;;0.92;55.81;102018.19;5040539;28;45225;-68
2024/01/08 06:35:23;;;;;;;;;16.00;12.50;;;;;0.93;55.80;102019.97;5035425;28;52248;-65
2024/01/08 06:37:48;;;;;;;;;12.75;11.00;;;;;0.88;55.77;102008.63;5003297;28;47083;-72
2024/01/08 06:40:14;;;;;;;;;16.00;12.00;;;;;0.85;55.29;102026.53;5017894;28;45387;-64
2024/01/08 06:42:39;;;;;;;;;16.50;11.25;;;;;0.78;54.86;102027.16;5032663;28;45312;-66
2024/01/08 06:45:05;;;;;;;;;17.00;12.00;;;;;0.64;54.97;102032.75;5027192;28;63828;-62
2024/01/08 06:47:30;;;;;;;;;20.75;15.50;;;;;0.56;55.22;102024.72;5035328;28;46278;-63
2024/01/08 06:49:55;;;;;;;;;18.33;14.67;;;;;0.52;55.77;102032.31;5027337;28;68250;-61
2024/01/08 06:52:20;;;;;;;;;15.00;8.33;;;;;0.52;55.57;102032.31;5027502;28;65190;-64
2024/01/08 06:54:46;;;;;;;;;24.33;14.00;;;;;0.52;55.84;102022.88;5038940;28;65990;-63
2024/01/08 06:57:11;;;;;;;;;15.33;11.67;;;;;0.56;55.58;102035.03;5027863;28;75430;-64
2024/01/08 06:59:36;;;;;;;;;25.33;14.67;;;;;0.53;55.30;102023.75;5028663;28;67942;-62
2024/01/08 07:02:02;;;;;;;;;33.25;17.75;;;;;0.47;55.24;102021.81;5035383;28;53374;-62
2024/01/08 07:04:27;;;;;;;;;16.75;10.00;;;;;0.45;55.62;102025.19;5032567;28;47237;-62
2024/01/08 07:06:54;;;;;;;;;19.33;11.67;;;;;0.42;55.76;102025.06;5030225;28;70942;-62
2024/01/08 07:09:19;;;;;;;;;17.75;15.75;;;;;0.40;55.62;102035.31;5014204;28;45682;-65
2024/01/08 07:11:44;;;;;;;;;27.67;15.00;;;;;0.35;56.01;102016.25;5035407;28;65780;-65
2024/01/08 07:14:10;;;;;;;;;21.67;15.00;;;;;0.28;56.20;102020.28;5013001;28;68421;-62
2024/01/08 07:16:35;;;;;;;;;24.00;17.00;;;;;0.22;56.35;102022.66;5034359;28;53390;-62
2024/01/08 07:19:00;;;;;;;;;21.00;17.75;;;;;0.20;56.40;102026.00;5032905;28;61743;-63
2024/01/08 07:21:27;;;;;;;;;14.50;9.00;;;;;0.21;56.62;102018.31;5039480;28;45398;-64
2024/01/08 07:23:53;;;;;;;;;17.50;13.25;;;;;0.20;56.54;102023.44;5034116;28;45397;-63
2024/01/08 07:26:18;;;;;;;;;23.50;18.00;;;;;0.20;56.78;102026.88;5017028;28;47064;-62
2024/01/08 07:28:45;;;;;;;;;24.00;11.25;;;;;0.21;56.38;102032.91;5020263;28;60733;-63
2024/01/08 07:31:11;;;;;;;;;26.00;18.25;;;;;0.18;56.67;102013.94;5023486;28;45452;-63
2024/01/08 07:33:36;;;;;;;;;13.75;13.75;;;;;0.18;56.73;102018.22;5035422;28;45629;-63
2024/01/08 07:36:05;;;;;;;;;16.50;11.75;;;;;0.18;56.84;102021.69;5021515;28;45565;-62
2024/01/08 07:38:31;;;;;;;;;27.00;20.00;;;;;0.17;56.76;102030.19;5013172;28;45405;-63
2024/01/08 07:40:56;;;;;;;;;22.75;13.25;;;;;0.17;56.91;102027.63;5031006;28;45198;-62
2024/01/08 07:43:21;;;;;;;;;17.00;10.00;;;;;0.20;56.93;102032.03;5022238;28;45250;-67
2024/01/08 07:45:47;;;;;;;;;25.33;18.00;;;;;0.21;56.87;102023.47;5030851;28;69085;-63
2024/01/08 07:48:12;;;;;;;;;21.00;15.50;;;;;0.16;56.83;102015.59;5018378;28;51593;-62
2024/01/08 07:50:37;;;;;;;;;13.50;8.25;;;;;0.21;57.13;102025.16;5031847;28;45696;-61
2024/01/08 07:53:04;;;;;;;;;28.75;16.75;;;;;0.25;57.05;102027.03;5026506;28;71809;-62
2024/01/08 07:55:29;;;;;;;;;21.50;18.00;;;;;0.28;56.96;102022.00;5039881;28;46643;-63
2024/01/08 07:57:55;;;;;;;;;20.25;15.50;;;;;0.31;56.99;102030.72;5026117;28;59397;-65
2024/01/08 08:00:22;;;;;;;;;26.25;17.75;;;;;0.23;79.16;102038.97;5028361;28;45571;-63
2024/01/08 08:02:47;;;;;;;;;21.00;14.75;;;;;0.16;80.90;102038.75;5009980;28;45445;-63
2024/01/08 08:05:13;;;;;;;;;27.25;20.00;;;;;0.20;60.40;102029.44;5028115;28;63223;-63
2024/01/08 08:07:39;;;;;;;;;18.67;11.67;;;;;0.24;58.42;102038.16;5029003;28;71016;-63
2024/01/08 08:10:05;;;;;;;;;20.75;18.00;;;;;0.25;58.32;102043.38;5008618;28;45505;-62
2024/01/08 08:12:30;;;;;;;;;28.75;18.50;;;;;0.29;57.95;102037.50;5036225;28;45456;-59
2024/01/08 08:14:58;;;;;;;;;15.75;13.75;;;;;0.32;57.46;102040.19;5019498;28;48014;-61
2024/01/08 08:17:23;;;;;;;;;17.25;14.00;;;;;0.28;57.52;102038.31;5034440;28;45719;-61
2024/01/08 08:19:49;;;;;;;;;27.75;14.50;;;;;0.26;57.66;102037.38;5035012;28;45368;-60
2024/01/08 08:22:15;;;;;;;;;27.25;18.00;;;;;0.27;57.92;102046.00;5027970;28;66800;-60
2024/01/08 08:24:41;;;;;;;;;25.75;20.50;;;;;0.33;57.82;102043.63;5035154;28;45987;-60
2024/01/08 08:27:09;;;;;;;;;24.50;19.75;;;;;0.39;57.80;102038.72;5017998;28;45413;-61
2024/01/08 08:29:37;;;;;;;;;20.00;15.25;;;;;0.45;58.09;102046.66;5038100;28;45418;-61
2024/01/08 08:32:03;;;;;;;;;27.00;19.25;;;;;0.52;57.87;102040.03;5018617;28;45463;-60
2024/01/08 08:34:28;;;;;;;;;25.00;15.25;;;;;0.56;57.49;102044.47;5028805;28;46171;-60
2024/01/08 08:36:54;;;;;;;;;14.00;10.00;;;;;0.59;57.64;102047.16;5031899;28;62167;-62
2024/01/08 08:39:19;;;;;;;;;22.00;20.25;;;;;0.61;57.43;102052.38;5013027;28;45409;-60
2024/01/08 08:41:45;;;;;;;;;16.75;10.00;;;;;0.56;57.31;102047.03;5030275;28;58210;-61
2024/01/08 08:44:12;;;;;;;;;27.00;17.75;;;;;0.53;57.56;102054.66;5039227;28;46856;-62
2024/01/08 08:46:37;;;;;;;;;21.50;15.75;;;;;0.49;57.60;102055.38;5023466;28;45366;-60
2024/01/08 08:49:03;;;;;;;;;27.00;18.75;;;;;0.50;57.82;102065.72;5035319;28;45271;-61
2024/01/08 08:51:28;;;;;;;;;15.00;14.67;;;;;0.52;57.91;102053.78;5034027;28;65472;-62
2024/01/08 08:53:54;;;;;;;;;21.00;16.75;;;;;0.55;58.02;102058.19;5027439;28;46056;-62
2024/01/08 08:56:20;;;;;;;;;19.00;14.25;;;;;0.55;57.88;102066.78;5023195;28;45215;-63
2024/01/08 08:58:45;;;;;;;;;27.75;21.00;;;;;0.55;59.67;102077.06;5017498;28;66976;-62
2024/01/08 09:01:11;;;;;;;;;24.33;19.33;;;;;0.56;58.74;102076.22;5026051;28;73156;-62
2024/01/08 09:03:37;;;;;;;;;23.00;18.25;;;;;0.56;59.56;102076.22;5038296;28;46344;-62
2024/01/08 09:06:02;;;;;;;;;26.00;19.00;;;;;0.53;67.10;102073.56;5020168;28;45327;-62
2024/01/08 09:08:28;;;;;;;;;28.50;21.25;;;;;0.53;70.25;102070.09;5005179;28;45430;-62
2024/01/08 09:10:53;;;;;;;;;22.50;19.75;;;;;0.59;64.27;102080.63;5035548;28;45415;-62
2024/01/08 09:13:19;;;;;;;;;27.00;19.75;;;;;0.66;60.73;102082.59;5035555;28;66758;-62
2024/01/08 09:15:44;;;;;;;;;20.25;15.50;;;;;0.56;83.61;102078.81;5037245;28;45297;-62
2024/01/08 09:18:09;;;;;;;;;18.33;18.00;;;;;0.54;84.84;102080.47;5038584;28;66634;-62
2024/01/08 09:20:34;;;;;;;;;20.00;13.50;;;;;0.52;83.26;102087.25;5021764;28;60055;-62
2024/01/08 09:23:00;;;;;;;;;24.25;17.00;;;;;0.52;83.19;102094.13;5041972;28;70248;-62
2024/01/08 09:25:25;;;;;;;;;30.00;18.75;;;;;0.53;72.06;102088.13;5029555;28;67983;-62
2024/01/08 09:27:50;;;;;;;;;22.00;15.00;;;;;0.55;63.67;102086.50;5041627;28;69409;-62
2024/01/08 09:30:16;;;;;;;;;28.75;18.75;;;;;0.53;62.92;102089.03;5024366;28;51894;-62
2024/01/08 09:32:41;;;;;;;;;25.00;18.25;;;;;0.50;62.77;102091.47;5042261;28;46495;-62
2024/01/08 09:35:07;;;;;;;;;23.00;11.33;;;;;0.49;62.65;102094.00;5037107;28;74109;-62
2024/01/08 09:37:32;;;;;;;;;33.25;18.50;;;;;0.44;62.41;102091.25;5040894;28;45490;-62
2024/01/08 09:39:57;;;;;;;;;21.00;18.00;;;;;0.29;96.71;102103.56;5022749;28;64430;-62
2024/01/08 09:42:26;;;;;;;;;31.33;16.67;;;;;0.20;89.85;102104.09;5037605;28;74661;-61
2024/01/08 09:44:54;;;;;;;;;27.50;19.25;;;;;0.18;72.42;102095.47;5023893;28;46178;-62
2024/01/08 09:47:19;;;;;;;;;26.25;17.75;;;;;0.12;68.09;102101.22;5024176;28;45413;-61
2024/01/08 09:49:45;;;;;;;;;19.75;15.00;;;;;0.10;67.27;102099.44;5040832;28;71008;-61
2024/01/08 09:52:13;;;;;;;;;25.25;19.00;;;;;0.03;68.87;102107.72;5034414;28;56534;-62
2024/01/08 09:54:38;;;;;;;;;20.25;17.75;;;;;0.02;67.76;102100.81;5024277;28;45278;-62
2024/01/08 09:57:04;;;;;;;;;28.25;18.50;;;;;-0.02;66.52;102102.41;5036905;28;66803;-60
2024/01/08 09:59:29;;;;;;;;;22.50;16.75;;;;;-0.02;66.71;102105.88;5036979;28;62955;-60
2024/01/08 10:01:56;;;;;;;;;24.25;16.00;;;;;-0.01;68.59;102112.75;5024134;28;45298;-61
2024/01/08 10:04:21;;;;;;;;;25.25;19.50;;;;;0.02;68.08;102113.69;5040490;28;45660;-61
2024/01/08 10:06:47;;;;;;;;;24.75;17.00;;;;;-0.06;86.59;102101.41;5039044;28;45379;-61
2024/01/08 10:09:12;;;;;;;;;31.25;20.75;;;;;-0.02;89.01;102116.16;5035640;28;45476;-61
2024/01/08 10:11:38;;;;;;;;;25.50;16.00;;;;;0.02;71.24;102118.84;5040474;28;45927;-61
2024/01/08 10:14:06;;;;;;;;;27.00;15.75;;;;;-0.06;78.49;102110.84;5021079;28;45538;-61
2024/01/08 10:16:31;;;;;;;;;26.50;18.00;;;;;-0.09;72.08;102109.03;5040428;28;45321;-61
2024/01/08 10:18:56;;;;;;;;;29.50;18.00;;;;;-0.08;68.74;102109.91;5038025;28;50388;-61
2024/01/08 10:21:22;;;;;;;;;37.00;20.67;;;;;-0.18;68.37;102113.78;5037428;28;75175;-60
2024/01/08 10:23:47;;;;;;;;;30.25;21.00;;;;;-0.06;87.04;102110.84;5034941;28;70295;-61
2024/01/08 10:26:16;;;;;;;;;28.75;18.00;;;;;-0.04;88.41;102104.03;5025646;28;45527;-60
2024/01/08 10:28:41;;;;;;;;;22.25;14.75;;;;;-0.12;93.53;102106.31;5035110;28;45267;-61
2024/01/08 10:31:08;;;;;;;;;28.75;17.75;;;;;-0.16;93.63;102111.28;5040211;28;45365;-61
2024/01/08 10:33:34;;;;;;;;;28.00;20.50;;;;;-0.22;76.40;102099.94;5016117;28;45334;-61
2024/01/08 10:36:01;;;;;;;;;26.50;15.00;;;;;-0.25;74.41;102093.78;5038047;28;45393;-61
2024/01/08 10:38:28;;;;;;;;;22.75;20.75;;;;;-0.28;72.66;102107.41;5015912;28;45279;-61
2024/01/08 10:40:55;;;;;;;;;24.25;14.75;;;;;-0.26;71.08;102099.78;5035678;28;46997;-60
2024/01/08 10:43:20;;;;;;;;;32.75;17.25;;;;;-0.32;88.00;102086.66;5022201;28;45279;-62
2024/01/08 10:45:48;;;;;;;;;30.50;19.25;;;;;-0.31;100.00;102093.56;5023470;28;45843;-62
2024/01/08 10:48:21;;;;;;;;;23.50;15.75;;;;;-0.28;100.00;102094.56;5019186;28;45346;-62
2024/01/08 10:50:51;;;;;;;;;29.25;16.00;;;;;-0.22;99.18;102087.06;5039919;28;45591;-62
2024/01/08 10:53:35;;;;;;;;;33.25;23.00;;;;;-0.13;79.30;102077.97;5017377;28;45373;-60
2024/01/08 10:56:03;;;;;;;;;25.50;18.00;;;;;-0.06;72.67;102080.81;5041300;28;45360;-61
2024/01/08 10:58:31;;;;;;;;;26.00;19.00;;;;;0.04;71.15;102079.50;5001455;28;45257;-61
2024/01/08 11:00:57;;;;;;;;;24.50;16.00;;;;;0.13;70.25;102068.66;5021811;28;46129;-62
2024/01/08 11:03:22;;;;;;;;;24.50;21.50;;;;;0.20;69.89;102073.22;5021560;28;71850;-61
2024/01/08 11:05:51;;;;;;;;;35.50;26.50;;;;;0.26;69.71;102070.84;5021761;28;61799;-60
2024/01/08 11:08:19;;;;;;;;;29.50;25.25;;;;;0.33;69.18;102064.25;5039363;28;45334;-60
2024/01/08 11:10:45;;;;;;;;;32.50;20.50;;;;;0.38;68.99;102058.44;5004661;28;47155;-61